Beverly, MA

9:09 PM EST on February 19, 2017 (GMT -0500)
Ryal Side Weather | | Change Station
Active Advisory: Small Craft Advisory

Elev 57 ft 42.55 °N, 70.89 °W | Updated 4 minutes ago

Overcast
Overcast
50.5 °F
Feels Like 50.5 °F
N
4.0
Wind Variable Wind from NW
Gusts 5.0 mph

Today
High -- | Low -- °F
--% Chance of Precip.
Yesterday
High -- | Low -- °F
Precip. -- in
Pressure 29.83 in
Visibility 10.0 miles
Clouds Overcast 7500 ft
Dew Point 33 °F
Humidity 51%
Rainfall 0.00 in
Snow Depth Not available.
6:34 AM 5:21 PM
Last Quarter, 38% visible
METAR KBVY 200153Z AUTO 30005KT 10SM OVC075 09/M01 A2984 RMK AO2 SLP102 T00941011
Pressure 29.83 in
Visibility 10.0 miles
Clouds Overcast 7500 ft
Dew Point 33 °F
Humidity 51%
Rainfall 0.00 in
Snow Depth Not available.
6:34 AM 5:21 PM
Last Quarter, 38% visible
METAR KBVY 200153Z AUTO 30005KT 10SM OVC075 09/M01 A2984 RMK AO2 SLP102 T00941011

Get Your Daily Forecast Email!

Thanks for signing up!

Be on the lookout for a verification email in your inbox.

You'll start receiving the daily forecast at 8 AM.

×

10-Day Weather Forecast

Almanac

Astronomy

Feb. 19, 2017 Rise Set
Actual Time
Civil Twilight
Nautical Twilight
Astronomical Twilight
Moon
Length of Visible Light
Length of Day
Tomorrow will be .
, % of the Moon is Illuminated

Today's Extremes

State Highs State Lows

Community

WunderPhotos

Upload Photos

1,962,540 photos uploaded!

WunderBlog® & News

Nearby

Air Quality

  Air Quality AQ Index Pollutant
Not available.

Snow Depth

Station Depth Elevation

Earthquake Activity

City Distance Mag. Time & Date
Minimum magnitude displayed is 2.5.

Coastal Water Temperatures

Place Temperature

Stations

Nearby Weather Stations

Station Location Temp. Windchill Dew Point Humidity Wind Precip. Elev Updated Type
                   

Watches & Warnings

Small Craft Advisory
Issued: 3:34 PM EST Feb. 19, 2017 – National Weather Service

... Small Craft Advisory now in effect until 9 am EST Monday...

* winds and seas... northwest winds 10 to 15 kt with gusts up to
25 kt. Seas 1 to 3 feet.

Precautionary/preparedness actions...

A Small Craft Advisory means that wind speeds of 25 to 33 knots
are expected to produce hazardous wave conditions to small craft.
Inexperienced mariners... especially those operating smaller
vessels should avoid navigating in these conditions.